Terminal Aerodrome Forecast
Issued by NWS Buffalo, NY

Home | Current Version | Previous Version | Text Only | Print | Product List | Glossary On
Versions: 1 2 3 4 5 6 7 8 9 10 11 12 13 14 15 16 17 18 19 20 21 22 23 24 25 26 27 28 29
000
FTUS41 KBUF 261733
TAFROC
TAF
KROC 261733Z 2618/2718 20013KT P6SM FEW160 BKN180 OVC250
     FM262000 18009KT 4SM -SHRA VCTS OVC045CB
     FM262100 19009KT 6SM -SHRA VCTS OVC045CB
     FM262200 19008KT 4SM -SHRA VCTS OVC045CB
     FM270000 22007KT 6SM -SHRA VCTS OVC012CB
     FM270200 23008KT P6SM BKN250
     FM271600 23010G19KT P6SM SCT250=

USA.gov is the U.S. government's official web portal to all federal, state and local government web resources and services.